createdAt,value
2016-11-18T00:01:03.586Z,0
2016-11-18T00:01:45.271Z,0
2016-11-18T00:04:21.616Z,0
2016-11-18T00:07:03.349Z,0
2016-11-18T00:07:45.097Z,0
2016-11-18T00:08:26.902Z,0
2016-11-18T00:09:08.625Z,0
2016-11-18T00:09:50.287Z,0
2016-11-18T00:12:05.738Z,0
2016-11-18T00:16:31.471Z,0
2016-11-18T00:17:13.127Z,0
2016-11-18T00:17:54.710Z,0
2016-11-18T00:20:10.099Z,0
2016-11-18T00:20:51.752Z,0
2016-11-18T00:21:33.530Z,0
2016-11-18T00:22:15.373Z,0
2016-11-18T00:22:57.079Z,0
2016-11-18T00:23:38.793Z,0
2016-11-18T00:24:20.493Z,0
2016-11-18T00:25:02.073Z,0
2016-11-18T00:25:43.773Z,0
2016-11-18T00:28:25.557Z,0
2016-11-18T00:29:07.139Z,0
2016-11-18T00:29:48.814Z,0
2016-11-18T00:30:30.544Z,0
2016-11-18T00:32:45.920Z,0
2016-11-18T00:35:01.234Z,0
2016-11-18T00:35:42.826Z,0
2016-11-18T00:36:24.450Z,0
2016-11-18T00:39:06.153Z,0
2016-11-18T00:39:47.781Z,0
2016-11-18T00:40:29.369Z,0
2016-11-18T00:41:11.122Z,0
2016-11-18T00:41:52.883Z,0
2016-11-18T00:42:34.431Z,0
2016-11-18T00:43:15.864Z,0
2016-11-18T00:43:57.427Z,0
2016-11-18T00:44:39.122Z,0
2016-11-18T00:45:20.831Z,0
2016-11-18T00:46:02.556Z,0
2016-11-18T00:50:33.712Z,0
2016-11-18T00:51:15.341Z,0
2016-11-18T00:53:51.701Z,0
2016-11-18T00:54:33.311Z,0
2016-11-18T00:55:14.988Z,0
2016-11-18T00:55:56.717Z,0
2016-11-18T00:56:38.465Z,0
2016-11-18T00:57:20.214Z,0
2016-11-18T00:58:01.928Z,0
2016-11-18T00:58:43.688Z,0
2016-11-18T00:59:25.349Z,0
2016-11-18T01:00:07.085Z,0
2016-11-18T01:00:48.798Z,0
2016-11-18T01:03:30.468Z,0
2016-11-18T01:04:12.144Z,0
2016-11-18T01:04:53.996Z,0
2016-11-18T01:05:35.503Z,0
2016-11-18T01:06:17.230Z,0
2016-11-18T01:06:59.025Z,0
2016-11-18T01:07:40.688Z,0
2016-11-18T01:08:22.414Z,0
2016-11-18T01:09:04.177Z,0
2016-11-18T01:09:45.945Z,0
2016-11-18T01:10:27.645Z,0
2016-11-18T01:11:09.204Z,0
2016-11-18T01:11:50.813Z,0
2016-11-18T01:12:32.580Z,0
2016-11-18T01:13:14.321Z,0
2016-11-18T01:13:56.059Z,0
2016-11-18T01:14:37.641Z,0
2016-11-18T01:17:08.697Z,0
2016-11-18T01:17:50.365Z,0
2016-11-18T01:22:21.607Z,0
2016-11-18T01:23:03.406Z,0
2016-11-18T01:23:45.073Z,0
2016-11-18T01:24:26.832Z,0
2016-11-18T01:26:42.387Z,0
2016-11-18T01:27:24.022Z,0
2016-11-18T01:29:39.421Z,0
2016-11-18T01:30:21.171Z,0
2016-11-18T01:31:02.802Z,0
2016-11-18T01:31:44.607Z,0
2016-11-18T01:32:26.287Z,0
2016-11-18T01:33:07.809Z,0
2016-11-18T01:33:49.458Z,0
2016-11-18T01:34:31.067Z,0
2016-11-18T01:38:46.438Z,0
2016-11-18T01:39:28.212Z,0
2016-11-18T01:40:09.944Z,0
2016-11-18T01:40:51.509Z,0
2016-11-18T01:43:06.971Z,0
2016-11-18T01:43:48.639Z,0
2016-11-18T01:44:30.357Z,0
2016-11-18T01:45:12.074Z,0
2016-11-18T01:45:53.771Z,0
2016-11-18T01:46:35.489Z,0
2016-11-18T01:47:17.226Z,0
2016-11-18T01:47:58.717Z,0
2016-11-18T01:48:39.669Z,0
2016-11-18T01:49:21.198Z,0
2016-11-18T01:50:02.885Z,0
2016-11-18T01:50:43.885Z,0
2016-11-18T01:51:25.607Z,0
2016-11-18T01:52:06.906Z,0
2016-11-18T01:56:32.723Z,0
2016-11-18T01:57:14.480Z,0
2016-11-18T01:59:50.984Z,0
2016-11-18T02:02:31.377Z,0
2016-11-18T02:03:11.915Z,0
2016-11-18T02:03:52.457Z,0
2016-11-18T02:04:32.983Z,0
2016-11-18T02:05:13.528Z,0
2016-11-18T02:05:54.070Z,0
2016-11-18T02:06:34.598Z,0
2016-11-18T02:07:15.127Z,0
2016-11-18T02:07:55.661Z,0
2016-11-18T02:08:36.203Z,0
2016-11-18T02:09:16.744Z,0
2016-11-18T02:09:57.288Z,0
2016-11-18T02:10:37.829Z,0
2016-11-18T02:11:18.406Z,0
2016-11-18T02:11:58.946Z,0
2016-11-18T02:12:39.484Z,0
2016-11-18T02:13:20.024Z,0
2016-11-18T02:14:00.560Z,0
2016-11-18T02:14:41.082Z,0
2016-11-18T02:15:21.623Z,0
2016-11-18T02:16:02.156Z,0
2016-11-18T02:16:42.694Z,0
2016-11-18T02:17:23.229Z,0
2016-11-18T02:18:03.777Z,0
2016-11-18T02:18:44.321Z,0
2016-11-18T02:19:24.861Z,0
2016-11-18T02:20:05.409Z,0
2016-11-18T02:20:45.951Z,0
2016-11-18T02:21:26.488Z,0
2016-11-18T02:22:07.017Z,0
2016-11-18T02:22:47.556Z,0
2016-11-18T02:23:28.100Z,0
2016-11-18T02:24:08.644Z,0
2016-11-18T02:24:49.185Z,0
2016-11-18T02:25:29.724Z,0
2016-11-18T02:26:10.268Z,0
2016-11-18T02:26:50.807Z,0
2016-11-18T02:27:31.333Z,0
2016-11-18T02:28:11.871Z,0
2016-11-18T02:28:52.409Z,0
2016-11-18T02:29:32.953Z,0
2016-11-18T02:30:13.489Z,0
2016-11-18T02:30:54.034Z,0
2016-11-18T02:31:34.569Z,0
2016-11-18T02:32:15.118Z,0
2016-11-18T02:32:55.653Z,0
2016-11-18T02:33:36.191Z,0
2016-11-18T02:34:16.717Z,0
2016-11-18T02:34:57.261Z,0
2016-11-18T02:35:37.812Z,0
2016-11-18T02:36:18.353Z,0
2016-11-18T02:36:58.895Z,0
2016-11-18T02:37:39.427Z,0
2016-11-18T02:38:19.954Z,0
2016-11-18T02:39:00.497Z,0
2016-11-18T02:39:41.031Z,0
2016-11-18T02:40:21.572Z,0
2016-11-18T02:41:02.111Z,0
2016-11-18T02:41:42.664Z,0
2016-11-18T02:42:23.218Z,0
2016-11-18T02:43:03.758Z,0
2016-11-18T02:43:44.308Z,0
2016-11-18T02:44:24.854Z,0
2016-11-18T02:45:05.390Z,0
2016-11-18T02:45:45.922Z,0
2016-11-18T02:46:26.460Z,0
2016-11-18T02:47:07.018Z,0
2016-11-18T02:47:47.588Z,0
2016-11-18T02:48:28.113Z,0
2016-11-18T02:49:08.647Z,0
2016-11-18T02:49:49.181Z,0
2016-11-18T02:50:29.711Z,0
2016-11-18T02:51:10.256Z,0
2016-11-18T02:51:50.792Z,0
2016-11-18T02:52:31.339Z,0
2016-11-18T02:53:11.866Z,0
2016-11-18T02:53:52.405Z,0
2016-11-18T02:54:32.951Z,0
2016-11-18T02:55:13.488Z,0
2016-11-18T02:55:54.023Z,0
2016-11-18T02:56:34.563Z,0
2016-11-18T02:57:15.100Z,0
2016-11-18T02:57:55.630Z,0
2016-11-18T02:58:36.165Z,0
2016-11-18T02:59:16.692Z,0
2016-11-18T02:59:57.229Z,0
2016-11-18T03:00:37.765Z,0
2016-11-18T03:01:18.302Z,0
2016-11-18T03:01:58.843Z,0
2016-11-18T03:02:39.379Z,0
2016-11-18T03:03:19.919Z,0
2016-11-18T03:04:00.454Z,0
2016-11-18T03:04:40.995Z,0
2016-11-18T03:05:21.529Z,0
2016-11-18T03:06:02.070Z,0
2016-11-18T03:06:42.617Z,0
2016-11-18T03:07:23.151Z,0
2016-11-18T03:08:03.702Z,0
2016-11-18T03:08:44.240Z,0
2016-11-18T03:09:24.768Z,0
2016-11-18T03:10:05.308Z,0
2016-11-18T03:10:45.845Z,0
2016-11-18T03:11:26.381Z,0
2016-11-18T03:12:06.936Z,0
2016-11-18T03:12:47.466Z,0
2016-11-18T03:13:28.021Z,0
2016-11-18T03:14:08.564Z,0
2016-11-18T03:14:49.107Z,0
2016-11-18T03:15:29.644Z,0
2016-11-18T03:16:10.186Z,0
2016-11-18T03:16:50.724Z,0
2016-11-18T03:17:31.265Z,0
2016-11-18T03:18:11.781Z,0
2016-11-18T03:18:52.331Z,0
2016-11-18T03:19:32.881Z,0
2016-11-18T03:20:13.410Z,0
2016-11-18T03:20:53.938Z,0
2016-11-18T03:21:34.513Z,0
2016-11-18T03:22:15.055Z,0
2016-11-18T03:22:55.600Z,0
2016-11-18T03:23:36.123Z,0
2016-11-18T03:24:16.663Z,0
2016-11-18T03:24:57.197Z,0
2016-11-18T03:25:37.736Z,0
2016-11-18T03:26:18.280Z,0
2016-11-18T03:26:58.819Z,0
2016-11-18T03:27:39.356Z,0
2016-11-18T03:28:19.897Z,0
2016-11-18T03:29:00.437Z,0
2016-11-18T03:29:40.976Z,0
2016-11-18T03:30:21.519Z,0
2016-11-18T03:31:02.055Z,0
2016-11-18T03:31:42.593Z,0
2016-11-18T03:32:23.149Z,0
2016-11-18T03:33:03.705Z,0
2016-11-18T03:33:44.245Z,0
2016-11-18T03:34:24.794Z,0
2016-11-18T03:35:05.338Z,0
2016-11-18T03:35:45.889Z,0
2016-11-18T03:36:26.428Z,0
2016-11-18T03:37:06.975Z,0
2016-11-18T03:37:47.523Z,0
2016-11-18T03:38:28.058Z,0
2016-11-18T03:39:08.596Z,0
2016-11-18T03:39:49.133Z,0
2016-11-18T03:40:29.675Z,0
2016-11-18T03:41:10.213Z,0
2016-11-18T03:41:50.751Z,0
2016-11-18T03:42:31.292Z,0
2016-11-18T03:43:11.828Z,0
2016-11-18T03:43:52.374Z,0
2016-11-18T03:44:32.924Z,0
2016-11-18T03:45:13.464Z,0
2016-11-18T03:45:53.993Z,0
2016-11-18T03:46:34.531Z,0
2016-11-18T03:47:15.076Z,0
2016-11-18T03:47:55.621Z,0
2016-11-18T03:48:36.159Z,0
2016-11-18T03:49:16.710Z,0
2016-11-18T03:49:57.256Z,0
2016-11-18T03:50:37.800Z,0
2016-11-18T03:51:18.339Z,0
2016-11-18T03:51:58.881Z,0
2016-11-18T03:52:39.431Z,0
2016-11-18T03:53:19.972Z,0
2016-11-18T03:54:00.512Z,0
2016-11-18T03:54:41.052Z,0
2016-11-18T03:55:21.597Z,0
2016-11-18T03:56:02.141Z,0
2016-11-18T03:56:42.681Z,0
2016-11-18T03:57:23.232Z,0
2016-11-18T03:58:03.781Z,0
2016-11-18T03:58:44.317Z,0
2016-11-18T03:59:24.866Z,0
2016-11-18T04:00:05.417Z,0
2016-11-18T04:00:45.954Z,0
2016-11-18T04:01:26.499Z,0
2016-11-18T04:02:07.040Z,0
2016-11-18T04:02:47.580Z,0
2016-11-18T04:03:28.116Z,0
2016-11-18T04:04:08.655Z,0
2016-11-18T04:04:49.193Z,0
2016-11-18T04:05:29.726Z,0
2016-11-18T04:06:10.272Z,0
2016-11-18T04:06:50.807Z,0
2016-11-18T04:07:31.351Z,0
2016-11-18T04:08:11.889Z,0
2016-11-18T04:08:52.468Z,0
2016-11-18T04:09:32.995Z,0
2016-11-18T04:10:13.533Z,0
2016-11-18T04:10:54.076Z,0
2016-11-18T04:11:34.615Z,0
2016-11-18T04:12:15.156Z,0
2016-11-18T04:12:55.683Z,0
2016-11-18T04:13:36.230Z,0
2016-11-18T04:14:16.783Z,0
2016-11-18T04:14:57.322Z,0
2016-11-18T04:15:37.869Z,0
2016-11-18T04:16:18.427Z,0
2016-11-18T04:16:58.973Z,0
2016-11-18T04:17:39.513Z,0
2016-11-18T04:18:20.057Z,0
2016-11-18T04:19:00.590Z,0
2016-11-18T04:19:41.131Z,0
2016-11-18T04:20:21.674Z,0
2016-11-18T04:21:02.215Z,0
2016-11-18T04:21:42.766Z,0
2016-11-18T04:22:23.313Z,0
2016-11-18T04:23:03.855Z,0
2016-11-18T04:23:44.424Z,0
2016-11-18T04:24:24.941Z,0
2016-11-18T04:25:05.474Z,0
2016-11-18T04:25:46.021Z,0
2016-11-18T04:26:26.562Z,0
2016-11-18T04:27:07.102Z,0
2016-11-18T04:27:47.643Z,0
2016-11-18T04:28:28.173Z,0
2016-11-18T04:29:08.713Z,0
2016-11-18T04:29:49.262Z,0
2016-11-18T04:30:29.808Z,0
2016-11-18T04:31:10.355Z,0
2016-11-18T04:31:50.897Z,0
2016-11-18T04:32:31.431Z,0
2016-11-18T04:33:11.976Z,0
2016-11-18T04:33:52.516Z,0
2016-11-18T04:34:33.059Z,0
2016-11-18T04:35:13.597Z,0
2016-11-18T04:35:54.135Z,0
2016-11-18T04:36:34.666Z,0
2016-11-18T04:37:15.205Z,0
2016-11-18T04:37:55.753Z,0
2016-11-18T04:38:36.298Z,0
2016-11-18T04:39:16.895Z,0
2016-11-18T04:39:57.428Z,0
2016-11-18T04:40:37.976Z,0
2016-11-18T04:41:18.512Z,0
2016-11-18T04:41:59.074Z,0
2016-11-18T04:42:39.622Z,0
2016-11-18T04:43:20.160Z,0
2016-11-18T04:44:00.703Z,0
2016-11-18T04:44:41.239Z,0
2016-11-18T04:45:21.796Z,0
2016-11-18T04:46:02.342Z,0
2016-11-18T04:48:31.841Z,0
2016-11-18T04:49:12.438Z,0
2016-11-18T04:49:52.983Z,0
2016-11-18T04:50:33.521Z,0
2016-11-18T04:51:14.139Z,0
2016-11-18T04:51:54.756Z,0
2016-11-18T04:52:35.290Z,0
2016-11-18T04:53:15.828Z,0
2016-11-18T04:53:56.367Z,0
2016-11-18T04:54:36.911Z,0
2016-11-18T04:55:17.454Z,0
2016-11-18T04:55:57.986Z,0
2016-11-18T04:56:38.533Z,0
2016-11-18T04:57:19.067Z,0
2016-11-18T04:57:59.603Z,0
2016-11-18T04:58:40.146Z,0
2016-11-18T04:59:20.685Z,0
2016-11-18T05:00:01.221Z,0
2016-11-18T05:00:41.761Z,0
2016-11-18T05:01:22.293Z,0
2016-11-18T05:02:02.831Z,0
2016-11-18T05:02:43.369Z,0
2016-11-18T05:03:23.909Z,0
2016-11-18T05:04:04.452Z,0
2016-11-18T05:04:44.992Z,0
2016-11-18T05:05:25.538Z,0
2016-11-18T05:06:06.132Z,0
2016-11-18T05:06:46.682Z,0
2016-11-18T05:07:27.220Z,0
2016-11-18T05:08:07.750Z,0
2016-11-18T05:08:48.305Z,0
2016-11-18T05:09:28.844Z,0
2016-11-18T05:10:09.386Z,0
2016-11-18T05:10:49.923Z,0
2016-11-18T05:11:30.459Z,0
2016-11-18T05:12:10.993Z,0
2016-11-18T05:12:51.536Z,0
2016-11-18T05:13:32.074Z,0
2016-11-18T05:14:12.615Z,0
2016-11-18T05:14:53.161Z,0
2016-11-18T05:15:33.704Z,0
2016-11-18T05:16:14.246Z,0
2016-11-18T05:16:54.788Z,0
2016-11-18T05:17:35.343Z,0
2016-11-18T05:18:15.867Z,0
2016-11-18T05:18:56.403Z,0
2016-11-18T05:19:36.937Z,0
2016-11-18T05:20:17.474Z,0
2016-11-18T05:20:58.009Z,0
2016-11-18T05:21:38.554Z,0
2016-11-18T05:22:19.086Z,0
2016-11-18T05:22:59.625Z,0
2016-11-18T05:23:40.165Z,0
2016-11-18T05:24:20.709Z,0
2016-11-18T05:25:01.248Z,0
2016-11-18T05:25:41.782Z,0
2016-11-18T05:26:22.314Z,0
2016-11-18T05:27:02.860Z,0
2016-11-18T05:27:43.403Z,0
2016-11-18T05:28:23.929Z,0
2016-11-18T05:29:04.470Z,0
2016-11-18T05:29:45.005Z,0
2016-11-18T05:30:25.538Z,0
2016-11-18T05:31:06.080Z,0
2016-11-18T05:31:46.615Z,0
2016-11-18T05:32:27.162Z,0
2016-11-18T05:33:07.705Z,0
2016-11-18T05:33:48.244Z,0
2016-11-18T05:34:28.779Z,0
2016-11-18T05:35:09.314Z,0
2016-11-18T05:35:49.849Z,0
2016-11-18T05:36:30.395Z,0
2016-11-18T05:37:10.928Z,0
2016-11-18T05:37:51.468Z,0
2016-11-18T05:38:32.014Z,0
2016-11-18T05:39:12.547Z,0
2016-11-18T05:39:53.093Z,0
2016-11-18T05:40:33.621Z,0
2016-11-18T05:41:14.158Z,0
2016-11-18T05:41:54.761Z,0
2016-11-18T05:42:35.362Z,0
2016-11-18T05:43:16.019Z,0
2016-11-18T05:43:56.571Z,0
2016-11-18T05:44:37.111Z,0
2016-11-18T05:45:17.649Z,0
2016-11-18T05:45:58.193Z,0
2016-11-18T05:46:38.730Z,0
2016-11-18T05:47:19.268Z,0
2016-11-18T05:47:59.809Z,0
2016-11-18T05:48:40.346Z,0
2016-11-18T05:49:20.880Z,0
2016-11-18T05:50:01.419Z,0
2016-11-18T05:50:41.956Z,0
2016-11-18T05:51:22.497Z,0
2016-11-18T05:52:03.035Z,0
2016-11-18T05:52:43.574Z,0
2016-11-18T05:53:24.114Z,0
2016-11-18T05:54:04.652Z,0
2016-11-18T05:54:45.197Z,0
2016-11-18T05:55:25.735Z,0
2016-11-18T05:56:06.276Z,0
2016-11-18T05:56:46.809Z,0
2016-11-18T05:57:27.353Z,0
2016-11-18T05:58:07.890Z,0
2016-11-18T05:58:48.437Z,0
2016-11-18T05:59:28.976Z,0
2016-11-18T06:02:23.815Z,0
2016-11-18T06:03:04.351Z,0
2016-11-18T06:03:44.895Z,0
2016-11-18T06:04:25.428Z,0
2016-11-18T06:05:05.971Z,0
2016-11-18T06:05:46.515Z,0
2016-11-18T06:06:27.046Z,0
2016-11-18T06:07:07.582Z,0
2016-11-18T06:07:48.121Z,0
2016-11-18T06:08:28.661Z,0
2016-11-18T06:09:09.197Z,0
2016-11-18T06:09:49.740Z,0
2016-11-18T06:10:30.277Z,0
2016-11-18T06:11:10.841Z,0
2016-11-18T06:11:51.378Z,0
2016-11-18T06:12:31.910Z,0
2016-11-18T06:13:12.440Z,0
2016-11-18T06:13:52.975Z,0
2016-11-18T06:14:33.518Z,0
2016-11-18T06:15:14.048Z,0
2016-11-18T06:15:54.592Z,0
2016-11-18T06:16:35.134Z,0
2016-11-18T06:17:15.694Z,0
2016-11-18T06:17:56.214Z,0
2016-11-18T06:18:36.744Z,0
2016-11-18T06:19:17.280Z,0
2016-11-18T06:19:57.822Z,0
2016-11-18T06:20:38.351Z,0
2016-11-18T06:21:18.900Z,0
2016-11-18T06:21:59.461Z,0
2016-11-18T06:22:40.009Z,0
2016-11-18T06:23:20.572Z,0
2016-11-18T06:24:01.113Z,0
2016-11-18T06:24:41.646Z,0
2016-11-18T06:25:22.192Z,0
2016-11-18T06:26:02.735Z,0
2016-11-18T06:26:43.277Z,0
2016-11-18T06:27:23.808Z,0
2016-11-18T06:28:04.354Z,0
2016-11-18T06:28:44.892Z,0
2016-11-18T06:29:25.426Z,0
2016-11-18T06:30:05.968Z,0
2016-11-18T06:30:46.501Z,0
2016-11-18T06:31:27.056Z,0
2016-11-18T06:32:07.578Z,0
2016-11-18T06:32:48.114Z,0
2016-11-18T06:33:28.651Z,0
2016-11-18T06:34:09.190Z,0
2016-11-18T06:34:49.722Z,0
2016-11-18T06:35:30.256Z,0
2016-11-18T06:36:10.800Z,0
2016-11-18T06:36:51.341Z,0
2016-11-18T06:37:31.876Z,0
2016-11-18T06:38:12.409Z,0
2016-11-18T06:38:52.953Z,0
2016-11-18T06:39:33.492Z,0
2016-11-18T06:40:14.028Z,0
2016-11-18T06:40:54.578Z,0
2016-11-18T06:41:35.121Z,0
2016-11-18T06:42:15.673Z,0
2016-11-18T06:42:56.208Z,0
2016-11-18T06:43:36.730Z,0
2016-11-18T06:44:17.268Z,0
2016-11-18T06:44:57.808Z,0
2016-11-18T06:45:38.347Z,0
2016-11-18T06:46:18.899Z,0
2016-11-18T06:46:59.449Z,0
2016-11-18T06:47:39.986Z,0
2016-11-18T06:48:20.535Z,0
2016-11-18T06:49:01.078Z,0
2016-11-18T06:49:41.634Z,0
2016-11-18T06:50:22.274Z,0
2016-11-18T06:51:02.818Z,0
2016-11-18T06:51:43.362Z,0
2016-11-18T06:52:23.897Z,0
2016-11-18T06:53:04.438Z,0
2016-11-18T06:53:44.986Z,0
2016-11-18T06:54:25.529Z,0
2016-11-18T06:55:06.080Z,0
2016-11-18T06:55:46.610Z,0
2016-11-18T06:56:27.161Z,0
2016-11-18T06:57:07.698Z,0
2016-11-18T06:57:48.236Z,5
2016-11-18T06:58:28.778Z,5
2016-11-18T06:59:09.307Z,5
2016-11-18T06:59:49.842Z,5
2016-11-18T07:00:30.383Z,0
2016-11-18T07:01:10.916Z,0
2016-11-18T07:01:51.463Z,0
2016-11-18T07:02:32.001Z,0
2016-11-18T07:03:12.545Z,0
2016-11-18T07:03:53.080Z,0
2016-11-18T07:04:33.624Z,0
2016-11-18T07:05:14.163Z,0
2016-11-18T07:05:54.701Z,5
2016-11-18T07:06:35.245Z,5
2016-11-18T07:07:15.782Z,5
2016-11-18T07:07:56.321Z,5
2016-11-18T07:08:36.862Z,5
2016-11-18T07:09:17.401Z,5
2016-11-18T07:09:57.937Z,5
2016-11-18T07:10:38.480Z,0
2016-11-18T07:11:19.007Z,0
2016-11-18T07:11:59.542Z,5
2016-11-18T07:12:40.076Z,5
2016-11-18T07:13:20.610Z,0
2016-11-18T07:14:01.148Z,0
2016-11-18T07:14:41.668Z,0
2016-11-18T07:15:22.208Z,0
2016-11-18T07:16:02.736Z,5
2016-11-18T07:16:43.269Z,5
2016-11-18T07:17:23.815Z,5
2016-11-18T07:18:04.355Z,5
2016-11-18T07:18:44.894Z,5
2016-11-18T07:19:25.435Z,5
2016-11-18T07:20:05.971Z,5
2016-11-18T07:20:46.504Z,5
2016-11-18T07:21:27.109Z,5
2016-11-18T07:22:07.649Z,5
2016-11-18T07:22:48.182Z,5
2016-11-18T07:23:28.719Z,5
2016-11-18T07:24:09.258Z,5
2016-11-18T07:24:49.797Z,5
2016-11-18T07:25:30.341Z,5
2016-11-18T07:26:10.887Z,5
2016-11-18T07:26:51.424Z,5
2016-11-18T07:27:31.964Z,10
2016-11-18T07:28:12.502Z,15
2016-11-18T07:28:53.016Z,15
2016-11-18T07:29:33.551Z,15
2016-11-18T07:30:14.081Z,15
2016-11-18T07:30:54.713Z,15
2016-11-18T07:31:35.419Z,15
2016-11-18T07:32:15.962Z,15
2016-11-18T07:32:56.501Z,20
2016-11-18T07:33:37.065Z,25
2016-11-18T07:34:17.602Z,25
2016-11-18T07:34:58.120Z,30
2016-11-18T07:35:38.665Z,25
2016-11-18T07:36:19.196Z,25
2016-11-18T07:36:59.732Z,25
2016-11-18T07:37:40.276Z,30
2016-11-18T07:38:20.813Z,30
2016-11-18T07:39:01.394Z,35
2016-11-18T07:39:41.935Z,40
2016-11-18T07:40:22.469Z,40
2016-11-18T07:41:03.007Z,50
2016-11-18T07:41:43.591Z,60
2016-11-18T07:42:24.131Z,65
2016-11-18T07:43:04.671Z,70
2016-11-18T07:43:45.208Z,65
2016-11-18T07:44:25.746Z,65
2016-11-18T07:45:06.293Z,65
2016-11-18T07:45:46.843Z,65
2016-11-18T07:46:27.369Z,60
2016-11-18T07:47:07.903Z,60
2016-11-18T07:47:48.433Z,55
2016-11-18T07:48:28.975Z,50
2016-11-18T07:49:09.512Z,45
2016-11-18T07:49:50.065Z,45
2016-11-18T07:50:30.601Z,40
2016-11-18T07:51:11.141Z,45
2016-11-18T07:51:51.681Z,50
2016-11-18T07:52:32.221Z,65
2016-11-18T07:53:12.753Z,70
2016-11-18T07:53:53.291Z,70
2016-11-18T07:54:33.825Z,80
2016-11-18T07:55:14.367Z,75
2016-11-18T07:55:54.956Z,70
2016-11-18T07:56:35.493Z,65
2016-11-18T07:57:16.035Z,70
2016-11-18T07:57:56.575Z,75
2016-11-18T07:58:37.123Z,80
2016-11-18T07:59:17.660Z,75
2016-11-18T07:59:58.204Z,60
2016-11-18T08:00:38.750Z,50
2016-11-18T08:01:19.348Z,50
2016-11-18T08:01:59.881Z,60
2016-11-18T08:02:40.427Z,60
2016-11-18T08:03:20.963Z,65
2016-11-18T08:04:01.496Z,60
2016-11-18T08:04:42.045Z,55
2016-11-18T08:05:22.581Z,55
2016-11-18T08:06:03.123Z,50
2016-11-18T08:06:43.664Z,50
2016-11-18T08:07:24.203Z,50
2016-11-18T08:08:04.735Z,50
2016-11-18T08:08:45.270Z,55
2016-11-18T08:09:25.816Z,75
2016-11-18T08:10:06.350Z,85
2016-11-18T08:10:46.887Z,85
2016-11-18T08:11:27.422Z,90
2016-11-18T08:12:07.947Z,80
2016-11-18T08:12:48.491Z,80
2016-11-18T08:13:29.036Z,70
2016-11-18T08:14:09.573Z,60
2016-11-18T08:14:50.108Z,65
2016-11-18T08:15:30.725Z,65
2016-11-18T08:16:11.193Z,75
2016-11-18T08:16:51.725Z,80
2016-11-18T08:17:32.262Z,85
2016-11-18T08:18:12.801Z,75
2016-11-18T08:18:53.342Z,80
2016-11-18T08:19:33.879Z,85
2016-11-18T08:20:14.429Z,80
2016-11-18T08:20:54.970Z,80
2016-11-18T08:21:35.507Z,80
2016-11-18T08:22:16.053Z,80
2016-11-18T08:22:56.589Z,80
2016-11-18T08:23:37.117Z,75
2016-11-18T08:24:17.659Z,80
2016-11-18T08:24:58.198Z,80
2016-11-18T08:25:38.734Z,70
2016-11-18T08:26:19.270Z,80
2016-11-18T08:26:59.813Z,95
2016-11-18T08:27:40.346Z,105
2016-11-18T08:28:20.883Z,115
2016-11-18T08:29:01.419Z,125
2016-11-18T08:29:41.994Z,125
2016-11-18T08:30:22.522Z,125
2016-11-18T08:31:03.056Z,135
2016-11-18T08:31:43.603Z,130
2016-11-18T08:32:24.140Z,120
2016-11-18T08:33:04.685Z,105
2016-11-18T08:33:45.228Z,90
2016-11-18T08:34:25.770Z,75
2016-11-18T08:35:06.305Z,70
2016-11-18T08:35:46.874Z,65
2016-11-18T08:36:27.411Z,75
2016-11-18T08:37:07.944Z,75
2016-11-18T08:37:48.481Z,75
2016-11-18T08:38:29.020Z,85
2016-11-18T08:39:09.562Z,85
2016-11-18T08:39:50.099Z,80
2016-11-18T08:40:30.642Z,70
2016-11-18T08:41:11.174Z,70
2016-11-18T08:41:51.710Z,70
2016-11-18T08:42:32.249Z,65
2016-11-18T08:43:12.787Z,65
2016-11-18T08:43:53.329Z,65
2016-11-18T08:44:33.866Z,65
2016-11-18T08:45:14.405Z,65
2016-11-18T08:45:54.936Z,70
2016-11-18T08:46:35.487Z,70
2016-11-18T08:47:16.030Z,75
2016-11-18T08:47:56.569Z,80
2016-11-18T08:48:37.115Z,85
2016-11-18T08:49:17.658Z,90
2016-11-18T08:49:58.198Z,100
2016-11-18T08:50:38.736Z,105
2016-11-18T08:51:19.278Z,115
2016-11-18T08:51:59.826Z,145
2016-11-18T08:52:40.376Z,155
2016-11-18T08:53:20.916Z,170
2016-11-18T08:54:01.459Z,175
2016-11-18T08:54:42.006Z,165
2016-11-18T08:55:22.600Z,170
2016-11-18T08:56:03.087Z,170
2016-11-18T08:56:43.640Z,160
2016-11-18T08:57:24.170Z,130
2016-11-18T08:58:04.711Z,110
2016-11-18T08:58:45.248Z,115
2016-11-18T08:59:25.790Z,105
2016-11-18T09:00:06.335Z,105
2016-11-18T09:00:46.880Z,115
2016-11-18T09:01:27.421Z,105
2016-11-18T09:02:07.953Z,105
2016-11-18T09:02:48.500Z,125
2016-11-18T09:03:29.050Z,110
2016-11-18T09:04:09.577Z,100
2016-11-18T09:04:50.116Z,85
2016-11-18T09:05:30.656Z,80
2016-11-18T09:06:11.193Z,85
2016-11-18T09:06:51.732Z,80
2016-11-18T09:07:32.291Z,75
2016-11-18T09:08:12.841Z,70
2016-11-18T09:08:53.389Z,75
2016-11-18T09:09:33.927Z,80
2016-11-18T09:10:14.478Z,85
2016-11-18T09:10:55.026Z,85
2016-11-18T09:11:35.558Z,95
2016-11-18T09:12:16.106Z,90
2016-11-18T09:12:56.640Z,90
2016-11-18T09:13:37.181Z,95
2016-11-18T09:14:17.749Z,100
2016-11-18T09:14:58.283Z,125
2016-11-18T09:15:38.817Z,155
2016-11-18T09:16:19.350Z,165
2016-11-18T09:16:59.889Z,165
2016-11-18T09:17:40.485Z,180
2016-11-18T09:18:21.029Z,205
2016-11-18T09:19:01.564Z,225
2016-11-18T09:19:42.103Z,255
2016-11-18T09:20:22.637Z,265
2016-11-18T09:21:03.180Z,310
2016-11-18T09:21:43.718Z,305
2016-11-18T09:22:24.256Z,360
2016-11-18T09:23:04.800Z,310
2016-11-18T09:23:45.339Z,340
2016-11-18T09:24:25.868Z,345
2016-11-18T09:25:06.412Z,355
2016-11-18T09:25:46.958Z,395
2016-11-18T09:26:27.500Z,360
2016-11-18T09:27:08.040Z,315
2016-11-18T09:27:48.582Z,380
2016-11-18T09:28:29.129Z,215
2016-11-18T09:29:09.674Z,315
2016-11-18T09:29:50.223Z,160
2016-11-18T09:30:30.763Z,190
2016-11-18T09:31:11.305Z,540
2016-11-18T09:31:51.837Z,135
2016-11-18T09:32:32.373Z,125
2016-11-18T09:33:12.911Z,110
2016-11-18T09:33:53.449Z,95
2016-11-18T09:34:33.992Z,80
2016-11-18T09:35:14.537Z,80
2016-11-18T09:35:55.079Z,85
2016-11-18T09:36:35.619Z,85
2016-11-18T09:37:16.160Z,85
2016-11-18T09:37:56.702Z,95
2016-11-18T09:38:37.242Z,100
2016-11-18T09:39:17.789Z,85
2016-11-18T09:39:58.330Z,100
2016-11-18T09:40:38.872Z,105
2016-11-18T09:41:19.418Z,130
2016-11-18T09:41:59.956Z,135
2016-11-18T09:42:40.501Z,140
2016-11-18T09:43:21.037Z,140
2016-11-18T09:44:01.589Z,145
2016-11-18T09:44:42.120Z,180
2016-11-18T09:45:22.653Z,180
2016-11-18T09:46:03.194Z,165
2016-11-18T09:46:43.734Z,140
2016-11-18T09:47:24.277Z,160
2016-11-18T09:48:04.813Z,160
2016-11-18T09:48:45.362Z,150
2016-11-18T09:49:25.977Z,160
2016-11-18T09:50:06.432Z,165
2016-11-18T09:50:46.963Z,150
2016-11-18T09:51:27.502Z,160
2016-11-18T09:52:08.043Z,160
2016-11-18T09:52:48.585Z,145
2016-11-18T09:53:29.112Z,145
2016-11-18T09:54:09.650Z,160
2016-11-18T09:54:50.198Z,165
2016-11-18T09:55:30.736Z,145
2016-11-18T09:56:11.274Z,150
2016-11-18T09:56:51.814Z,160
2016-11-18T09:57:32.357Z,185
2016-11-18T09:58:12.897Z,215
2016-11-18T09:58:53.437Z,1335
2016-11-18T09:59:33.973Z,670
2016-11-18T10:00:14.521Z,325
2016-11-18T10:00:55.067Z,385
2016-11-18T10:01:35.602Z,290
2016-11-18T10:02:16.144Z,425
2016-11-18T10:02:56.689Z,1320
2016-11-18T10:03:37.233Z,1245
2016-11-18T10:04:17.783Z,885
2016-11-18T10:04:58.321Z,535
2016-11-18T10:05:38.863Z,1275
2016-11-18T10:06:19.404Z,1325
2016-11-18T10:06:59.947Z,1265
2016-11-18T10:07:40.481Z,1320
2016-11-18T10:08:21.029Z,1340
2016-11-18T10:09:01.578Z,1380
2016-11-18T10:09:42.122Z,1315
2016-11-18T10:10:22.665Z,1305
2016-11-18T10:11:03.210Z,325
2016-11-18T10:11:43.753Z,490
2016-11-18T10:12:24.280Z,410
2016-11-18T10:13:04.838Z,310
2016-11-18T10:13:45.362Z,275
2016-11-18T10:14:25.903Z,270
2016-11-18T10:15:06.476Z,320
2016-11-18T10:15:46.998Z,330
2016-11-18T10:16:27.536Z,315
2016-11-18T10:17:08.084Z,285
2016-11-18T10:17:48.623Z,290
2016-11-18T10:18:29.166Z,250
2016-11-18T10:19:09.704Z,265
2016-11-18T10:19:50.241Z,275
2016-11-18T10:20:30.777Z,255
2016-11-18T10:21:11.319Z,200
2016-11-18T10:21:51.860Z,180
2016-11-18T10:22:32.407Z,170
2016-11-18T10:23:12.940Z,145
2016-11-18T10:23:53.494Z,140
2016-11-18T10:24:34.039Z,135
2016-11-18T10:25:14.583Z,120
2016-11-18T10:25:55.123Z,120
2016-11-18T10:26:35.668Z,150
2016-11-18T10:27:16.212Z,120
2016-11-18T10:27:56.755Z,95
2016-11-18T10:28:37.294Z,80
2016-11-18T10:29:17.836Z,70
2016-11-18T10:29:58.385Z,70
2016-11-18T10:30:38.924Z,60
2016-11-18T10:31:19.531Z,50
2016-11-18T10:32:00.068Z,45
2016-11-18T10:32:40.605Z,35
2016-11-18T10:33:21.140Z,35
2016-11-18T10:34:01.677Z,35
2016-11-18T10:34:42.221Z,40
2016-11-18T10:35:22.768Z,30
2016-11-18T10:36:03.306Z,25
2016-11-18T10:36:43.840Z,20
2016-11-18T10:37:24.391Z,20
2016-11-18T10:38:04.938Z,25
2016-11-18T10:38:45.475Z,30
2016-11-18T10:39:26.006Z,30
2016-11-18T10:40:06.543Z,35
2016-11-18T10:40:47.089Z,35
2016-11-18T10:41:27.631Z,35
2016-11-18T10:42:08.178Z,35
2016-11-18T10:42:48.717Z,35